LiveATC.Net - Listen to live air traffic control over the Internet!


ICAO: MMTC  IATA: TRC   Airport: Torreon International Airport
City: Torreon
Country: Mexico   Continent: North America
MMTC METAR Weather: MMTC 082048Z 11006KT 15SM SCT030TCU 34/15 A3008 RMK SLP074 56014 920 8/200
MMTC Flight Activity (FlightAware)

MMTC Twr/App/Center
Feed Status: UP   Listeners: 1
Listen in your browser - HTML5 player (in browser, HTML5)
Click here to listen with your own player (launches your MP3 player)
Archive Access: MMTC Twr/App/Center
FacilityFrequency
Mazatlan Center124.200
Mazatlan Center124.400
Mazatlan Center128.000
Mexico Center123.900
Monterrey Center125.425
Monterrey Center125.600
Monterrey Center127.400
Torreon Approach119.500
Torreon Tower118.500

NOTICE

Unauthorized use prohibited. See LiveATC.net Terms of Service


Airport/ARTCC Code
Frequency Search
(e.g., 124.400, 128.75)
Site-wide search
 


Browse Feeds
Top 50 Feeds
Coverage Map
Bad Weather Areas

LiveATC FAQ
Offer LiveATC feed
Contact LiveATC.net
Press Inquiries

LiveATC on iPhone
LiveATC on Android

Windows Phone
Windows 8/10

LiveATC Mobile
(Mobile browser)

ATC Audio Archives
Interesting Recordings

LiveATC Forums


Home Page
About LiveATC.net
Make a Donation
Terms of Use
Privacy Policy

Canadian Air Freqs

AIRMETs/SIGMETs

FAA Airport Status
Nat'l Airspace Status
Arrival Demand Charts


Server Software By:
Icecast.org
Liquidsoap